createdAt,value
2022-12-23T00:02:01.747Z,3.42
2022-12-23T00:04:28.686Z,3.42
2022-12-23T00:06:55.338Z,2.85
2022-12-23T00:09:22.088Z,3.28
2022-12-23T00:12:07.316Z,3.55
2022-12-23T00:14:53.409Z,3.50
2022-12-23T00:17:23.468Z,4.10
2022-12-23T00:19:50.243Z,3.67
2022-12-23T00:22:16.882Z,4.22
2022-12-23T00:24:43.670Z,3.80
2022-12-23T00:27:10.352Z,3.67
2022-12-23T00:29:37.017Z,4.20
2022-12-23T00:32:03.812Z,4.53
2022-12-23T00:34:30.533Z,4.13
2022-12-23T00:36:57.243Z,4.50
2022-12-23T00:39:42.716Z,4.43
2022-12-23T00:42:28.253Z,4.68
2022-12-23T00:45:14.857Z,4.35
2022-12-23T00:48:01.016Z,4.75
2022-12-23T00:50:27.949Z,4.70
2022-12-23T00:52:54.595Z,5.07
2022-12-23T00:55:21.453Z,4.55
2022-12-23T00:57:48.163Z,4.70
2022-12-23T01:00:15.560Z,5.47
2022-12-23T01:03:00.917Z,5.07
2022-12-23T01:05:36.517Z,5.05
2022-12-23T01:08:08.652Z,4.90
2022-12-23T01:10:36.605Z,4.68
2022-12-23T01:13:03.626Z,4.85
2022-12-23T01:15:30.951Z,5.00
2022-12-23T01:17:57.863Z,4.22
2022-12-23T01:20:25.005Z,4.70
2022-12-23T01:22:51.675Z,4.38
2022-12-23T01:25:18.330Z,5.13
2022-12-23T01:27:45.035Z,4.68
2022-12-23T01:30:11.903Z,4.85
2022-12-23T01:32:38.794Z,5.03
2022-12-23T01:35:05.767Z,4.88
2022-12-23T01:37:32.377Z,4.70
2022-12-23T01:39:58.995Z,4.68
2022-12-23T01:42:43.810Z,4.80
2022-12-23T01:45:24.658Z,4.82
2022-12-23T01:47:58.919Z,3.97
2022-12-23T01:50:36.462Z,3.90
2022-12-23T01:53:23.408Z,3.67
2022-12-23T01:56:02.132Z,2.92
2022-12-23T01:58:33.509Z,3.40
2022-12-23T02:01:19.862Z,3.55
2022-12-23T02:03:49.139Z,3.33
2022-12-23T02:06:47.472Z,3.75
2022-12-23T02:09:17.155Z,3.30
2022-12-23T02:11:50.629Z,3.95
2022-12-23T02:14:55.496Z,3.33
2022-12-23T02:17:57.141Z,3.90
2022-12-23T02:20:41.933Z,3.80
2022-12-23T02:23:24.856Z,3.78
2022-12-23T02:26:09.968Z,4.15
2022-12-23T02:28:52.537Z,4.13
2022-12-23T02:31:40.659Z,4.05
2022-12-23T02:34:17.154Z,4.13
2022-12-23T02:36:51.906Z,4.18
2022-12-23T02:39:33.179Z,4.20
2022-12-23T02:42:08.030Z,4.30
2022-12-23T02:45:00.103Z,4.25
2022-12-23T02:47:34.951Z,3.33
2022-12-23T02:50:09.402Z,3.67
2022-12-23T02:52:39.010Z,3.38
2022-12-23T02:55:12.254Z,3.78
2022-12-23T02:57:44.646Z,3.45
2022-12-23T03:00:12.967Z,3.25
2022-12-23T03:02:41.651Z,2.88
2022-12-23T03:05:29.692Z,3.10
2022-12-23T03:08:02.488Z,2.97
2022-12-23T03:10:57.805Z,3.30
2022-12-23T03:13:58.434Z,3.35
2022-12-23T03:16:36.965Z,3.17
2022-12-23T03:19:20.357Z,3.88
2022-12-23T03:22:15.580Z,3.92
2022-12-23T03:24:55.378Z,5.00
2022-12-23T03:27:33.447Z,4.30
2022-12-23T03:30:05.467Z,6.13
2022-12-23T03:33:06.900Z,5.60
2022-12-23T03:35:39.775Z,5.53
2022-12-23T03:38:08.898Z,5.95
2022-12-23T03:40:37.869Z,5.85
2022-12-23T03:43:11.438Z,5.40
2022-12-23T03:45:44.392Z,6.35
2022-12-23T03:48:26.184Z,6.00
2022-12-23T03:51:01.127Z,6.78
2022-12-23T03:53:38.383Z,6.35
2022-12-23T03:56:16.114Z,6.63
2022-12-23T03:58:49.158Z,6.80
2022-12-23T04:01:40.177Z,6.05
2022-12-23T04:04:20.727Z,6.03
2022-12-23T04:06:55.573Z,6.47
2022-12-23T04:09:25.792Z,6.07
2022-12-23T04:11:52.812Z,6.22
2022-12-23T04:14:21.110Z,5.28
2022-12-23T04:16:49.890Z,5.22
2022-12-23T04:19:16.558Z,5.38
2022-12-23T04:21:43.189Z,4.95
2022-12-23T04:24:09.807Z,4.63
2022-12-23T04:26:36.455Z,4.60
2022-12-23T04:29:03.212Z,4.65
2022-12-23T04:31:30.023Z,4.13
2022-12-23T04:33:57.152Z,3.88
2022-12-23T04:36:23.913Z,4.82
2022-12-23T04:38:50.563Z,4.20
2022-12-23T04:41:17.213Z,4.53
2022-12-23T04:43:49.243Z,4.75
2022-12-23T04:46:19.487Z,4.40
2022-12-23T04:48:46.168Z,4.35
2022-12-23T04:51:12.903Z,5.00
2022-12-23T04:53:39.599Z,4.82
2022-12-23T04:56:06.365Z,4.57
2022-12-23T04:58:33.082Z,4.80
2022-12-23T05:01:04.681Z,4.57
2022-12-23T05:03:31.552Z,4.15
2022-12-23T05:05:58.416Z,5.03
2022-12-23T05:08:25.228Z,4.47
2022-12-23T05:10:51.992Z,4.60
2022-12-23T05:13:18.785Z,4.60
2022-12-23T05:15:46.752Z,4.75
2022-12-23T05:18:13.409Z,4.10
2022-12-23T05:20:40.146Z,4.82
2022-12-23T05:23:06.875Z,4.45
2022-12-23T05:25:35.175Z,4.88
2022-12-23T05:28:02.076Z,5.30
2022-12-23T05:30:29.024Z,4.80
2022-12-23T05:32:56.937Z,4.78
2022-12-23T05:35:25.023Z,4.60
2022-12-23T05:37:52.004Z,4.53
2022-12-23T05:40:23.458Z,4.97
2022-12-23T05:42:51.369Z,4.82
2022-12-23T05:45:18.070Z,5.43
2022-12-23T05:47:44.671Z,5.30
2022-12-23T05:50:11.870Z,4.60
2022-12-23T05:52:38.688Z,4.95
2022-12-23T05:55:05.887Z,4.93
2022-12-23T05:57:32.534Z,5.43
2022-12-23T05:59:59.187Z,4.90
2022-12-23T06:02:25.952Z,4.80
2022-12-23T06:04:52.678Z,5.28
2022-12-23T06:07:19.326Z,5.03
2022-12-23T06:09:45.969Z,4.70
2022-12-23T06:12:12.936Z,4.00
2022-12-23T06:14:39.633Z,4.90
2022-12-23T06:17:06.361Z,4.75
2022-12-23T06:19:33.009Z,4.80
2022-12-23T06:21:59.669Z,4.93
2022-12-23T06:24:26.301Z,5.60
2022-12-23T06:26:57.000Z,5.28
2022-12-23T06:29:24.351Z,5.40
2022-12-23T06:31:51.064Z,4.97
2022-12-23T06:34:17.948Z,4.85
2022-12-23T06:36:44.600Z,4.85
2022-12-23T06:39:11.659Z,5.45
2022-12-23T06:41:38.463Z,5.38
2022-12-23T06:44:05.308Z,4.80
2022-12-23T06:46:32.198Z,5.90
2022-12-23T06:48:58.907Z,6.25
2022-12-23T06:51:25.619Z,10.10
2022-12-23T06:53:52.235Z,9.10
2022-12-23T06:56:19.084Z,8.52
2022-12-23T06:58:45.784Z,8.30
2022-12-23T07:01:12.544Z,10.30
2022-12-23T07:03:39.263Z,9.30
2022-12-23T07:06:06.236Z,9.93
2022-12-23T07:08:32.886Z,9.68
2022-12-23T07:11:00.553Z,10.45
2022-12-23T07:13:27.628Z,9.45
2022-12-23T07:15:54.326Z,9.95
2022-12-23T07:18:24.786Z,9.00
2022-12-23T07:20:52.135Z,8.63
2022-12-23T07:23:19.200Z,9.07
2022-12-23T07:25:45.951Z,10.77
2022-12-23T07:28:12.643Z,9.93
2022-12-23T07:30:39.244Z,10.10
2022-12-23T07:33:05.974Z,9.13
2022-12-23T07:35:32.662Z,9.70
2022-12-23T07:37:59.327Z,10.63
2022-12-23T07:40:26.466Z,10.55
2022-12-23T07:42:57.949Z,10.48
2022-12-23T07:45:29.535Z,10.07
2022-12-23T07:47:58.619Z,9.50
2022-12-23T07:50:26.099Z,10.82
2022-12-23T07:52:54.007Z,10.95
2022-12-23T07:55:20.991Z,10.85
2022-12-23T07:57:48.743Z,10.82
2022-12-23T08:00:15.986Z,10.10
2022-12-23T08:02:43.517Z,9.52
2022-12-23T08:05:10.989Z,9.48
2022-12-23T08:07:38.069Z,10.13
2022-12-23T08:10:06.054Z,9.00
2022-12-23T08:12:33.363Z,9.65
2022-12-23T08:15:00.152Z,9.95
2022-12-23T08:17:28.678Z,10.45
2022-12-23T08:19:55.747Z,10.77
2022-12-23T08:22:22.726Z,10.60
2022-12-23T08:24:49.751Z,10.82
2022-12-23T08:27:16.467Z,12.15
2022-12-23T08:29:43.271Z,10.85
2022-12-23T08:32:09.964Z,13.48
2022-12-23T08:34:37.028Z,12.75
2022-12-23T08:37:03.673Z,12.15
2022-12-23T08:39:30.318Z,12.55
2022-12-23T08:41:57.009Z,11.05
2022-12-23T08:44:26.890Z,12.40
2022-12-23T08:46:56.271Z,11.43
2022-12-23T08:49:23.489Z,11.43
2022-12-23T08:51:50.216Z,13.45
2022-12-23T08:54:17.721Z,12.43
2022-12-23T08:56:44.940Z,12.95
2022-12-23T08:59:19.503Z,14.90
2022-12-23T09:01:47.663Z,17.10
2022-12-23T09:04:14.628Z,15.30
2022-12-23T09:06:42.222Z,14.23
2022-12-23T09:09:11.009Z,14.25
2022-12-23T09:11:38.332Z,19.25
2022-12-23T09:14:06.993Z,14.43
2022-12-23T09:16:33.882Z,11.60
2022-12-23T09:19:00.679Z,11.95
2022-12-23T09:21:28.541Z,15.52
2022-12-23T09:23:55.189Z,13.23
2022-12-23T09:26:24.666Z,17.60
2022-12-23T09:28:52.110Z,15.77
2022-12-23T09:31:20.447Z,17.30
2022-12-23T09:33:49.225Z,19.08
2022-12-23T09:36:16.435Z,20.45
2022-12-23T09:38:43.162Z,16.83
2022-12-23T09:41:46.233Z,16.65
2022-12-23T09:44:21.651Z,19.38
2022-12-23T09:46:53.466Z,16.85
2022-12-23T09:49:22.364Z,14.85
2022-12-23T09:51:52.457Z,15.05
2022-12-23T09:54:28.875Z,13.20
2022-12-23T09:57:03.834Z,13.25
2022-12-23T09:59:55.098Z,11.30
2022-12-23T10:02:25.356Z,11.65
2022-12-23T10:05:37.612Z,11.68
2022-12-23T10:08:15.135Z,11.60
2022-12-23T10:10:52.861Z,11.10
2022-12-23T10:13:29.488Z,11.27
2022-12-23T10:16:03.257Z,11.30
2022-12-23T10:18:42.168Z,11.65
2022-12-23T10:21:34.901Z,11.40
2022-12-23T10:24:11.429Z,11.82
2022-12-23T10:26:54.764Z,10.25
2022-12-23T10:29:25.150Z,11.77
2022-12-23T10:32:00.509Z,10.27
2022-12-23T10:34:39.436Z,9.52
2022-12-23T10:37:14.099Z,10.60
2022-12-23T10:40:09.713Z,10.10
2022-12-23T10:42:58.307Z,10.32
2022-12-23T10:45:48.213Z,10.55
2022-12-23T10:48:20.903Z,11.88
2022-12-23T10:51:00.481Z,10.25
2022-12-23T10:53:43.534Z,10.45
2022-12-23T10:56:10.495Z,9.35
2022-12-23T10:58:41.585Z,9.82
2022-12-23T11:01:16.111Z,10.18
2022-12-23T11:04:14.387Z,11.60
2022-12-23T11:06:45.849Z,11.65
2022-12-23T11:09:18.977Z,10.77
2022-12-23T11:12:07.410Z,11.27
2022-12-23T11:14:41.729Z,11.60
2022-12-23T11:17:25.310Z,10.05
2022-12-23T11:20:10.443Z,10.95
2022-12-23T11:22:50.590Z,11.00
2022-12-23T11:25:33.907Z,11.23
2022-12-23T11:28:11.982Z,11.35
2022-12-23T11:30:55.207Z,10.88
2022-12-23T11:33:34.946Z,11.20
2022-12-23T11:36:04.721Z,11.07
2022-12-23T11:38:32.380Z,11.45
2022-12-23T11:40:59.639Z,11.68
2022-12-23T11:43:27.763Z,11.52
2022-12-23T11:46:18.311Z,11.05
2022-12-23T11:48:51.311Z,10.90
2022-12-23T11:51:25.882Z,11.43
2022-12-23T11:53:59.928Z,11.52
2022-12-23T11:56:27.064Z,10.82
2022-12-23T11:59:03.708Z,10.82
2022-12-23T12:01:30.888Z,10.98
2022-12-23T12:04:02.048Z,11.27
2022-12-23T12:06:30.705Z,10.32
2022-12-23T12:08:59.087Z,10.10
2022-12-23T12:11:29.641Z,9.73
2022-12-23T12:14:03.191Z,9.88
2022-12-23T12:16:49.223Z,8.77
2022-12-23T12:19:41.715Z,8.80
2022-12-23T12:22:30.325Z,8.45
2022-12-23T12:25:00.431Z,8.95
2022-12-23T12:27:36.570Z,9.40
2022-12-23T12:30:10.291Z,9.07
2022-12-23T12:33:05.051Z,9.05
2022-12-23T12:35:43.596Z,8.35
2022-12-23T12:38:25.444Z,8.07
2022-12-23T12:41:07.353Z,7.70
2022-12-23T12:43:40.076Z,7.38
2022-12-23T12:46:24.025Z,9.07
2022-12-23T12:49:14.540Z,7.38
2022-12-23T12:51:46.609Z,7.35
2022-12-23T12:54:32.152Z,6.88
2022-12-23T12:56:59.739Z,5.97
2022-12-23T12:59:29.441Z,6.47
2022-12-23T13:02:33.731Z,6.53
2022-12-23T13:05:10.869Z,7.35
2022-12-23T13:08:15.264Z,7.97
2022-12-23T13:10:49.628Z,16.08
2022-12-23T13:13:35.239Z,13.68
2022-12-23T13:16:36.102Z,14.18
2022-12-23T13:19:20.355Z,21.42
2022-12-23T13:21:59.328Z,24.45
2022-12-23T13:24:43.857Z,20.02
2022-12-23T13:27:35.624Z,13.25
2022-12-23T13:30:04.534Z,11.10
2022-12-23T13:32:39.827Z,9.80
2022-12-23T13:35:12.350Z,11.27
2022-12-23T13:37:56.034Z,11.63
2022-12-23T13:40:37.802Z,10.70
2022-12-23T13:43:25.817Z,11.18
2022-12-23T13:45:55.123Z,11.88
2022-12-23T13:48:58.282Z,11.77
2022-12-23T13:51:43.356Z,12.38
2022-12-23T13:54:41.962Z,10.95
2022-12-23T13:57:31.723Z,12.32
2022-12-23T14:00:23.041Z,12.25
2022-12-23T14:02:59.883Z,12.32
2022-12-23T14:05:40.748Z,11.73
2022-12-23T14:08:19.438Z,12.45
2022-12-23T14:11:00.202Z,12.43
2022-12-23T14:13:50.210Z,11.40
2022-12-23T14:16:40.267Z,11.90
2022-12-23T14:19:19.047Z,12.43
2022-12-23T14:22:00.840Z,11.65
2022-12-23T14:25:09.371Z,10.85
2022-12-23T14:28:00.460Z,11.00
2022-12-23T14:30:35.980Z,11.23
2022-12-23T14:33:23.845Z,10.90
2022-12-23T14:35:53.772Z,11.05
2022-12-23T14:38:30.142Z,10.85
2022-12-23T14:41:18.811Z,12.20
2022-12-23T14:43:45.393Z,10.75
2022-12-23T14:46:33.768Z,11.23
2022-12-23T14:49:29.674Z,11.05
2022-12-23T14:51:50.668Z,10.75
2022-12-23T14:54:18.577Z,11.68
2022-12-23T14:57:08.852Z,10.48
2022-12-23T15:00:02.584Z,12.00
2022-12-23T15:02:35.233Z,10.73
2022-12-23T15:05:02.447Z,10.63
2022-12-23T15:07:42.131Z,11.13
2022-12-23T15:10:20.010Z,10.20
2022-12-23T15:12:49.039Z,12.45
2022-12-23T15:15:28.311Z,10.73
2022-12-23T15:18:03.696Z,9.48
2022-12-23T15:20:30.765Z,9.73
2022-12-23T15:23:01.550Z,9.93
2022-12-23T15:25:31.427Z,9.65
2022-12-23T15:28:02.090Z,10.10
2022-12-23T15:30:37.134Z,8.80
2022-12-23T15:33:27.882Z,10.73
2022-12-23T15:35:54.057Z,21.38
2022-12-23T15:38:22.821Z,13.10
2022-12-23T15:41:05.027Z,12.15
2022-12-23T15:43:32.238Z,10.88
2022-12-23T15:46:09.349Z,14.35
2022-12-23T15:48:37.900Z,14.48
2022-12-23T15:51:14.797Z,12.05
2022-12-23T15:53:44.145Z,15.27
2022-12-23T15:56:26.000Z,14.85
2022-12-23T15:58:54.968Z,15.52
2022-12-23T16:01:22.389Z,15.63
2022-12-23T16:03:53.133Z,16.25
2022-12-23T16:06:34.563Z,15.77
2022-12-23T16:09:22.789Z,16.63
2022-12-23T16:12:03.972Z,15.60
2022-12-23T16:14:30.804Z,11.93
2022-12-23T16:17:09.413Z,11.95
2022-12-23T16:19:50.481Z,10.90
2022-12-23T16:22:20.239Z,12.52
2022-12-23T16:24:53.355Z,14.90
2022-12-23T16:27:36.163Z,15.82
2022-12-23T16:30:19.786Z,19.70
2022-12-23T16:32:54.369Z,24.25
2022-12-23T16:35:31.530Z,19.48
2022-12-23T16:38:23.063Z,13.30
2022-12-23T16:40:54.935Z,12.27
2022-12-23T16:43:23.587Z,11.75
2022-12-23T16:45:57.124Z,10.32
2022-12-23T16:48:39.502Z,12.90
2022-12-23T16:51:11.087Z,9.30
2022-12-23T16:53:37.993Z,11.18
2022-12-23T16:56:12.367Z,10.10
2022-12-23T16:58:39.068Z,11.13
2022-12-23T17:01:06.021Z,12.68
2022-12-23T17:03:32.868Z,12.10
2022-12-23T17:05:59.481Z,10.93
2022-12-23T17:08:26.124Z,12.45
2022-12-23T17:10:52.981Z,12.57
2022-12-23T17:13:19.703Z,11.40
2022-12-23T17:15:46.308Z,11.00
2022-12-23T17:18:17.262Z,11.00
2022-12-23T17:20:46.058Z,10.00
2022-12-23T17:23:25.532Z,10.68
2022-12-23T17:25:52.195Z,15.40
2022-12-23T17:28:19.824Z,12.20
2022-12-23T17:30:46.772Z,13.13
2022-12-23T17:33:17.897Z,10.82
2022-12-23T17:35:44.658Z,11.75
2022-12-23T17:38:15.989Z,11.43
2022-12-23T17:40:45.052Z,11.70
2022-12-23T17:43:14.208Z,11.63
2022-12-23T17:45:41.273Z,11.45
2022-12-23T17:48:20.173Z,11.52
2022-12-23T17:50:48.601Z,12.70
2022-12-23T17:53:19.498Z,12.27
2022-12-23T17:55:46.419Z,15.25
2022-12-23T17:58:14.186Z,10.88
2022-12-23T18:00:41.456Z,11.75
2022-12-23T18:03:22.092Z,10.77
2022-12-23T18:05:49.110Z,10.57
2022-12-23T18:08:16.831Z,10.80
2022-12-23T18:10:44.273Z,11.10
2022-12-23T18:13:16.906Z,11.10
2022-12-23T18:15:44.690Z,12.15
2022-12-23T18:18:31.321Z,11.90
2022-12-23T18:21:02.263Z,10.85
2022-12-23T18:23:31.268Z,11.20
2022-12-23T18:25:58.767Z,10.65
2022-12-23T18:28:25.772Z,12.82
2022-12-23T18:30:54.556Z,12.32
2022-12-23T18:33:21.660Z,14.35
2022-12-23T18:35:50.012Z,16.02
2022-12-23T18:38:17.701Z,13.15
2022-12-23T18:40:44.803Z,13.65
2022-12-23T18:43:24.711Z,13.00
2022-12-23T18:45:53.970Z,13.38
2022-12-23T18:48:21.735Z,13.18
2022-12-23T18:50:48.766Z,11.50
2022-12-23T18:53:23.734Z,13.38
2022-12-23T18:55:51.906Z,13.38
2022-12-23T18:58:18.689Z,15.07
2022-12-23T19:00:46.324Z,15.15
2022-12-23T19:03:25.062Z,14.15
2022-12-23T19:05:53.375Z,14.68
2022-12-23T19:08:26.204Z,12.10
2022-12-23T19:10:54.445Z,9.93
2022-12-23T19:13:21.626Z,10.98
2022-12-23T19:15:48.760Z,9.68
2022-12-23T19:18:18.059Z,10.00
2022-12-23T19:20:45.963Z,9.98
2022-12-23T19:23:13.328Z,8.57
2022-12-23T19:25:50.716Z,9.27
2022-12-23T19:28:21.501Z,9.43
2022-12-23T19:30:48.472Z,8.68
2022-12-23T19:33:15.282Z,9.52
2022-12-23T19:35:42.772Z,10.73
2022-12-23T19:38:10.282Z,9.90
2022-12-23T19:40:36.996Z,11.18
2022-12-23T19:43:04.071Z,10.52
2022-12-23T19:45:30.765Z,9.80
2022-12-23T19:47:57.463Z,11.15
2022-12-23T19:50:24.298Z,10.93
2022-12-23T19:52:51.597Z,11.00
2022-12-23T19:55:18.364Z,9.43
2022-12-23T19:57:45.045Z,10.40
2022-12-23T20:00:12.366Z,9.38
2022-12-23T20:02:39.448Z,9.70
2022-12-23T20:05:06.485Z,9.45
2022-12-23T20:07:35.472Z,8.13
2022-12-23T20:10:02.636Z,8.35
2022-12-23T20:12:29.351Z,7.93
2022-12-23T20:14:56.054Z,7.75
2022-12-23T20:17:22.667Z,7.60
2022-12-23T20:19:49.283Z,7.18
2022-12-23T20:22:15.919Z,6.43
2022-12-23T20:24:42.538Z,7.80
2022-12-23T20:27:11.711Z,6.72
2022-12-23T20:29:38.711Z,6.00
2022-12-23T20:32:05.642Z,6.65
2022-12-23T20:34:38.722Z,6.25
2022-12-23T20:37:06.740Z,5.55
2022-12-23T20:39:33.453Z,4.97
2022-12-23T20:42:00.109Z,5.20
2022-12-23T20:44:35.972Z,6.70
2022-12-23T20:47:06.719Z,4.72
2022-12-23T20:49:33.750Z,5.38
2022-12-23T20:52:00.739Z,5.05
2022-12-23T20:54:32.834Z,5.55
2022-12-23T20:57:02.137Z,4.10
2022-12-23T20:59:29.059Z,3.47
2022-12-23T21:01:58.757Z,3.90
2022-12-23T21:04:25.477Z,3.78
2022-12-23T21:06:52.160Z,3.50
2022-12-23T21:09:19.264Z,3.20
2022-12-23T21:11:47.105Z,4.55
2022-12-23T21:14:14.557Z,3.53
2022-12-23T21:16:41.756Z,3.80
2022-12-23T21:19:13.445Z,3.55
2022-12-23T21:21:40.089Z,4.20
2022-12-23T21:24:06.836Z,4.43
2022-12-23T21:26:34.960Z,4.10
2022-12-23T21:29:04.044Z,4.50
2022-12-23T21:31:33.214Z,3.85
2022-12-23T21:34:00.402Z,4.30
2022-12-23T21:36:30.898Z,4.50
2022-12-23T21:38:58.667Z,4.80
2022-12-23T21:41:35.889Z,4.13
2022-12-23T21:44:03.066Z,4.80
2022-12-23T21:46:29.917Z,5.15
2022-12-23T21:48:58.095Z,4.05
2022-12-23T21:51:39.485Z,4.82
2022-12-23T21:54:08.060Z,4.63
2022-12-23T21:56:34.816Z,4.82
2022-12-23T21:59:04.034Z,4.97
2022-12-23T22:01:31.214Z,5.07
2022-12-23T22:03:58.357Z,4.63
2022-12-23T22:06:28.500Z,4.88
2022-12-23T22:08:56.572Z,4.75
2022-12-23T22:11:28.912Z,4.03
2022-12-23T22:13:57.217Z,4.50
2022-12-23T22:16:25.759Z,3.63
2022-12-23T22:18:53.285Z,4.03
2022-12-23T22:21:21.886Z,3.75
2022-12-23T22:23:49.632Z,3.35
2022-12-23T22:26:24.758Z,2.95
2022-12-23T22:28:52.749Z,2.63
2022-12-23T22:31:40.061Z,2.63
2022-12-23T22:34:08.128Z,2.60
2022-12-23T22:36:35.233Z,2.72
2022-12-23T22:39:02.364Z,2.45
2022-12-23T22:41:30.420Z,2.60
2022-12-23T22:43:58.032Z,2.25
2022-12-23T22:46:25.424Z,2.67
2022-12-23T22:48:52.936Z,2.70
2022-12-23T22:51:25.718Z,2.80
2022-12-23T22:53:52.616Z,2.90
2022-12-23T22:56:21.479Z,2.45
2022-12-23T22:58:49.002Z,3.05
2022-12-23T23:01:33.081Z,2.65
2022-12-23T23:04:02.051Z,3.25
2022-12-23T23:06:40.191Z,3.03
2022-12-23T23:09:08.816Z,2.85
2022-12-23T23:11:35.925Z,2.72
2022-12-23T23:14:03.379Z,3.03
2022-12-23T23:16:30.270Z,2.78
2022-12-23T23:18:58.602Z,2.72
2022-12-23T23:21:25.748Z,2.58
2022-12-23T23:23:52.730Z,3.05
2022-12-23T23:26:20.319Z,2.22
2022-12-23T23:28:47.853Z,2.70
2022-12-23T23:31:41.375Z,2.00
2022-12-23T23:34:01.155Z,2.50
2022-12-23T23:36:27.861Z,2.53
2022-12-23T23:38:54.528Z,2.40
2022-12-23T23:41:23.757Z,2.78
2022-12-23T23:43:51.275Z,3.15
2022-12-23T23:46:18.273Z,3.38
2022-12-23T23:48:44.951Z,2.78
2022-12-23T23:51:12.492Z,2.53
2022-12-23T23:53:39.307Z,2.05
2022-12-23T23:56:07.099Z,2.20
2022-12-23T23:58:34.794Z,2.80
